Grand Rapids, Michigan
Current Conditions -  °F | °C
As of 11:53 PM on Saturday 25 Oct 2014 (Local Time) from KGRR Reporting Station
Clear Clear  
Wind Chill: 55°   Ceiling: Unl
Heat Index: 55°   Visibility: 10mi
Dew Point: 33°   Wind: 13mph
Humidity: 43%   Direction: 290°WNW
Pressure: 29.88"   Gusts: NA
Location:  42.97°N, 85.67°W
Report Text: KGRR 260353Z 29011KT 10SM CLR 13/01 A2988 RMK AO2 SLP117 T01280006
Loading
Personal Weather Stations






























Interactive Weather Map
Tropical Storm Tracking
New forecast layout! Learn more

10-Day Weather Forecast

Advertisements
Track Severe Weather on mobile